Terminal Aerodrome Forecast
Issued by NWS

Home | Current Version | Previous Version | Text Only | Print | Product List | Glossary On
Versions: 1 2 3 4 5 6 7 8 9 10 11 12 13 14 15 16 17 18
812
FTUS45 KTFX 291740
TAFGTF
TAF
KGTF 291740Z 2918/3018 23012G20KT P6SM FEW070 SCT120
     FM292200 23010KT P6SM VCTS SCT070CB BKN100
     FM300200 12009KT P6SM VCSH BKN070 BKN120
     FM300600 22012G20KT P6SM BKN080
     FM301400 28015G25KT P6SM BKN050 PROB30 3014/3018 -SHRA BKN050=

USA.gov is the U.S. government's official web portal to all federal, state and local government web resources and services.